Upper Edmonton, United Kingdom
Current Conditions -  °F | °C
As of 3:50 PM on Wednesday 28 Jan 2015 (Local Time) from EGLC Reporting Station
Few Clouds Few Clouds  
Wind Chill: 34°   Ceiling: Unl
Heat Index: 43°   Visibility: 6mi
Dew Point: 28°   Wind: 21mph
Humidity: 57%   Direction: 280°W
Pressure: 29.56"   Gusts: NA
Location:  51.61°N, 0.09°W
Report Text: EGLC 281550Z 28018KT 9999 FEW045 06/M02 Q1001
Loading
Personal Weather Stations






























Interactive Weather Map New forecast layout! Learn more

10-Day Weather Forecast

Advertisements
Track Severe Weather on mobile